Time;durP1;ratioP1;P1;durP2;ratioP2;P2;SDS_P1;SDS_P2;PMS_P1;PMS_P2;Temp;Humidity;BMP_temperature;BMP_pressure;BME280_temperature;BME280_humidity;BME280_pressure;Samples;Min_cycle;Max_cycle;Signal;HPM_P1;HPM_P2
2022/09/01 00:01:19;;;;;;;1.73;0.60;;;15.60;99.90;;;;;;4148843;28;20658;-75
2022/09/01 00:03:22;;;;;;;0.70;0.70;;;15.60;99.90;;;;;;4154004;28;20692;-75
2022/09/01 00:05:24;;;;;;;1.00;0.63;;;15.60;99.90;;;;;;4132526;28;20211;-75
2022/09/01 00:07:28;;;;;;;0.77;0.63;;;15.60;99.90;;;;;;4137962;28;20753;-75
2022/09/01 00:09:30;;;;;;;1.17;0.80;;;15.60;99.90;;;;;;4154133;28;20214;-75
2022/09/01 00:11:33;;;;;;;1.07;0.97;;;15.60;99.90;;;;;;4155129;28;20209;-75
2022/09/01 00:13:35;;;;;;;0.90;0.87;;;15.60;99.90;;;;;;4155750;28;20301;-75
2022/09/01 00:15:37;;;;;;;1.00;0.80;;;15.60;99.90;;;;;;4134287;28;20243;-75
2022/09/01 00:17:40;;;;;;;0.50;0.50;;;15.60;99.90;;;;;;4133400;28;20217;-75
2022/09/01 00:19:43;;;;;;;0.70;0.60;;;15.70;99.90;;;;;;4153769;28;20227;-75
2022/09/01 00:21:45;;;;;;;0.77;0.70;;;15.70;99.90;;;;;;4154502;28;20210;-75
2022/09/01 00:23:47;;;;;;;0.57;0.57;;;15.70;99.90;;;;;;4154688;28;20214;-75
2022/09/01 00:25:49;;;;;;;1.00;0.90;;;15.60;99.90;;;;;;4136654;28;20800;-74
2022/09/01 00:27:51;;;;;;;0.80;0.70;;;15.70;99.90;;;;;;4154026;28;20210;-75
2022/09/01 00:29:53;;;;;;;1.00;0.80;;;15.60;99.90;;;;;;4136850;28;20742;-75
2022/09/01 00:31:55;;;;;;;1.27;0.70;;;15.60;99.90;;;;;;4154052;28;20667;-74
2022/09/01 00:33:59;;;;;;;0.93;0.60;;;15.60;99.90;;;;;;4154479;28;20303;-75
2022/09/01 00:36:01;;;;;;;1.27;0.80;;;15.60;99.90;;;;;;4155680;28;20666;-74
2022/09/01 00:38:03;;;;;;;0.93;0.70;;;15.60;99.90;;;;;;4154070;28;20688;-74
2022/09/01 00:42:32;;;;;;;0.63;0.63;;;15.60;99.90;;;;;;4150056;28;20206;-75
2022/09/01 00:44:35;;;;;;;1.27;0.70;;;15.50;99.90;;;;;;4155189;28;20237;-75
2022/09/01 00:46:39;;;;;;;0.60;0.60;;;15.50;99.90;;;;;;4152850;28;20229;-74
2022/09/01 00:48:41;;;;;;;0.60;0.60;;;15.50;99.90;;;;;;4155906;28;20209;-75
2022/09/01 00:50:45;;;;;;;0.60;0.60;;;15.50;99.90;;;;;;4155086;28;20214;-75
2022/09/01 00:52:51;;;;;;;1.30;0.70;;;15.50;99.90;;;;;;4149209;28;20305;-74
2022/09/01 00:54:57;;;;;;;0.90;0.70;;;15.50;99.90;;;;;;4139917;28;20797;-74
2022/09/01 00:57:01;;;;;;;0.77;0.70;;;15.50;99.90;;;;;;4152477;28;20775;-74
2022/09/01 00:59:06;;;;;;;1.23;0.80;;;15.60;99.90;;;;;;4154556;28;20692;-74
2022/09/01 01:01:09;;;;;;;1.27;0.80;;;15.50;99.90;;;;;;4149502;28;20207;-75
2022/09/01 01:03:12;;;;;;;0.77;0.73;;;15.60;99.90;;;;;;4154346;28;20213;-74
2022/09/01 01:05:16;;;;;;;0.93;0.80;;;15.50;99.90;;;;;;4153256;28;20210;-75
2022/09/01 01:07:22;;;;;;;0.90;0.73;;;15.50;99.90;;;;;;4135713;28;20730;-75
2022/09/01 01:09:26;;;;;;;0.83;0.80;;;15.50;99.90;;;;;;4154926;28;20205;-74
2022/09/01 01:11:31;;;;;;;0.93;0.77;;;15.50;99.90;;;;;;4133937;28;20329;-74
2022/09/01 01:13:36;;;;;;;0.73;0.70;;;15.50;99.90;;;;;;4152163;28;20210;-77
2022/09/01 01:15:42;;;;;;;0.93;0.80;;;15.50;99.90;;;;;;4154283;28;20917;-75
2022/09/01 01:17:44;;;;;;;0.83;0.70;;;15.40;99.90;;;;;;4135860;28;20210;-75
2022/09/01 01:24:41;;;;;;;0.60;0.60;;;15.40;99.90;;;;;;4153659;28;20710;-74
2022/09/01 01:26:44;;;;;;;0.70;0.60;;;15.40;99.90;;;;;;4156630;28;20226;-74
2022/09/01 01:28:45;;;;;;;0.70;0.70;;;15.30;99.90;;;;;;4154591;28;20222;-74
2022/09/01 01:30:51;;;;;;;0.60;0.60;;;15.30;99.90;;;;;;4153683;28;20210;-74
2022/09/01 01:32:57;;;;;;;1.00;0.73;;;15.30;99.90;;;;;;4155872;28;20206;-74
2022/09/01 01:35:02;;;;;;;0.63;0.60;;;15.30;99.90;;;;;;4153377;28;20209;-75
2022/09/01 01:37:04;;;;;;;1.20;0.90;;;15.30;99.90;;;;;;4152374;28;20251;-75
2022/09/01 01:39:09;;;;;;;1.53;0.83;;;15.30;99.90;;;;;;4155724;28;20215;-74
2022/09/01 01:41:14;;;;;;;1.07;0.73;;;15.20;99.90;;;;;;4152253;28;20236;-74
2022/09/01 01:43:18;;;;;;;1.90;0.90;;;15.20;99.90;;;;;;4154018;28;20554;-74
2022/09/01 01:45:23;;;;;;;0.80;0.80;;;15.20;99.90;;;;;;4137148;28;20217;-75
2022/09/01 01:47:25;;;;;;;1.20;0.70;;;15.20;99.90;;;;;;4139001;28;20226;-74
2022/09/01 01:49:29;;;;;;;1.20;0.80;;;15.20;99.90;;;;;;4136197;28;20879;-74
2022/09/01 01:51:31;;;;;;;0.90;0.80;;;15.20;99.90;;;;;;4150457;28;20228;-75
2022/09/01 01:53:34;;;;;;;1.33;0.70;;;15.10;99.90;;;;;;4146961;28;20284;-75
2022/09/01 01:55:36;;;;;;;0.97;0.80;;;15.10;99.90;;;;;;4158022;28;20701;-74
2022/09/01 01:57:48;;;;;;;1.20;0.90;;;15.10;99.90;;;;;;4152686;28;20209;-75
2022/09/01 01:59:50;;;;;;;1.00;0.80;;;15.10;99.90;;;;;;4134446;28;20206;-75
2022/09/01 02:01:52;;;;;;;0.90;0.80;;;15.00;99.90;;;;;;4149334;28;20592;-74
2022/09/01 02:03:55;;;;;;;1.43;0.80;;;15.10;99.90;;;;;;4131211;28;20232;-74
2022/09/01 02:06:03;;;;;;;1.30;0.80;;;15.00;99.90;;;;;;4154089;28;20267;-75
2022/09/01 02:08:08;;;;;;;1.30;1.00;;;14.90;99.90;;;;;;4156153;28;20235;-74
2022/09/01 02:10:11;;;;;;;1.33;0.90;;;15.00;99.90;;;;;;4136251;28;20300;-75
2022/09/01 02:12:13;;;;;;;1.20;0.70;;;15.00;99.90;;;;;;4137221;28;20234;-75
2022/09/01 02:14:19;;;;;;;1.50;0.90;;;14.90;99.90;;;;;;4152493;28;20210;-74
2022/09/01 02:16:21;;;;;;;2.03;0.80;;;14.90;99.90;;;;;;4155326;28;20240;-75
2022/09/01 02:18:27;;;;;;;0.93;0.70;;;14.90;99.90;;;;;;4135849;28;20659;-74
2022/09/01 02:20:30;;;;;;;0.80;0.70;;;14.90;99.90;;;;;;4146429;28;20676;-75
2022/09/01 02:22:32;;;;;;;1.30;0.93;;;14.80;99.90;;;;;;4149264;28;20720;-75
2022/09/01 02:24:34;;;;;;;1.60;0.80;;;14.80;99.90;;;;;;4151422;28;20303;-74
2022/09/01 02:26:39;;;;;;;2.30;0.87;;;14.80;99.90;;;;;;4135547;28;20586;-74
2022/09/01 02:28:41;;;;;;;0.97;0.80;;;14.80;99.90;;;;;;4134941;28;20308;-75
2022/09/01 02:30:48;;;;;;;1.00;0.90;;;14.80;99.90;;;;;;4150440;28;20246;-74
2022/09/01 02:32:49;;;;;;;2.00;1.00;;;14.80;99.90;;;;;;4152410;28;20625;-74
2022/09/01 02:34:55;;;;;;;0.87;0.73;;;14.70;99.90;;;;;;4136215;28;20228;-75
2022/09/01 02:36:58;;;;;;;1.10;0.70;;;14.70;99.90;;;;;;4150024;28;20223;-75
2022/09/01 02:39:00;;;;;;;1.23;0.70;;;14.70;99.90;;;;;;4149407;28;20212;-75
2022/09/01 02:41:03;;;;;;;0.80;0.80;;;14.70;99.90;;;;;;4151671;28;20294;-74
2022/09/01 02:43:05;;;;;;;1.57;0.90;;;14.70;99.90;;;;;;4134331;28;20288;-74
2022/09/01 02:45:10;;;;;;;1.37;0.80;;;14.60;99.90;;;;;;4151475;28;20235;-74
2022/09/01 02:47:14;;;;;;;1.00;0.80;;;14.60;99.90;;;;;;4156084;28;20240;-74
2022/09/01 02:49:23;;;;;;;1.00;0.73;;;14.60;99.90;;;;;;4144883;28;20207;-74
2022/09/01 02:51:25;;;;;;;1.23;0.90;;;14.60;99.90;;;;;;4135187;28;20215;-75
2022/09/01 02:53:27;;;;;;;1.33;1.07;;;14.60;99.90;;;;;;4151374;28;20205;-74
2022/09/01 02:55:29;;;;;;;1.10;0.90;;;14.50;99.90;;;;;;4152340;28;20207;-74
2022/09/01 02:57:33;;;;;;;1.23;0.77;;;14.50;99.90;;;;;;4135839;28;20236;-74
2022/09/01 02:59:36;;;;;;;1.43;0.90;;;14.50;99.90;;;;;;4137775;28;20212;-74
2022/09/01 03:01:38;;;;;;;0.90;0.90;;;14.50;99.90;;;;;;4146101;28;20761;-74
2022/09/01 03:03:41;;;;;;;0.80;0.80;;;14.40;99.90;;;;;;4149544;28;20201;-74
2022/09/01 03:05:43;;;;;;;1.80;1.10;;;14.40;99.90;;;;;;4133304;28;20231;-74
2022/09/01 03:07:45;;;;;;;1.33;0.93;;;14.40;99.90;;;;;;4151299;28;20311;-75
2022/09/01 03:09:47;;;;;;;1.80;0.80;;;14.40;99.90;;;;;;4136052;28;20295;-74
2022/09/01 03:11:51;;;;;;;0.90;0.80;;;14.40;99.90;;;;;;4152868;28;20227;-75
2022/09/01 03:13:53;;;;;;;1.40;0.87;;;14.30;99.90;;;;;;4152556;28;20642;-74
2022/09/01 03:15:56;;;;;;;1.47;0.80;;;14.30;99.90;;;;;;4149843;28;20232;-74
2022/09/01 03:17:59;;;;;;;2.00;1.00;;;14.30;99.90;;;;;;4131692;28;20243;-74
2022/09/01 03:20:03;;;;;;;2.10;1.00;;;14.30;99.90;;;;;;4142255;28;20663;-74
2022/09/01 03:22:05;;;;;;;1.40;0.90;;;14.20;99.90;;;;;;4148952;28;20215;-74
2022/09/01 03:24:07;;;;;;;1.30;1.10;;;14.20;99.90;;;;;;4152459;28;20291;-74
2022/09/01 03:26:09;;;;;;;1.60;0.90;;;14.20;99.90;;;;;;4147637;28;20231;-75
2022/09/01 03:28:12;;;;;;;1.17;0.90;;;14.20;99.90;;;;;;4134549;28;20808;-74
2022/09/01 03:30:14;;;;;;;0.90;0.80;;;14.20;99.90;;;;;;4151476;28;20215;-75
2022/09/01 03:32:16;;;;;;;1.40;0.90;;;14.10;99.90;;;;;;4132807;28;20220;-75
2022/09/01 03:34:22;;;;;;;1.80;1.00;;;14.10;99.90;;;;;;4149319;28;20286;-75
2022/09/01 03:36:26;;;;;;;1.00;0.90;;;14.10;99.90;;;;;;4148687;28;20301;-76
2022/09/01 03:38:32;;;;;;;1.57;1.10;;;14.10;99.90;;;;;;4136786;28;20346;-75
2022/09/01 03:40:36;;;;;;;1.60;1.00;;;14.10;99.90;;;;;;4154032;28;20364;-75
2022/09/01 03:42:38;;;;;;;0.80;0.80;;;14.00;99.90;;;;;;4151887;28;20214;-76
2022/09/01 03:44:43;;;;;;;1.97;1.00;;;14.00;99.90;;;;;;4158645;28;20229;-75
2022/09/01 03:46:44;;;;;;;1.90;1.30;;;14.00;99.90;;;;;;4156684;28;20227;-75
2022/09/01 03:48:49;;;;;;;1.13;0.87;;;14.00;99.90;;;;;;4157767;28;20310;-75
2022/09/01 03:50:51;;;;;;;2.10;1.10;;;13.90;99.90;;;;;;4152896;28;20207;-75
2022/09/01 03:53:00;;;;;;;1.47;1.03;;;13.90;99.90;;;;;;4156741;28;20207;-75
2022/09/01 03:55:02;;;;;;;2.80;1.17;;;13.90;99.90;;;;;;4157554;28;20203;-75
2022/09/01 03:57:08;;;;;;;2.40;1.00;;;13.90;99.90;;;;;;4140484;28;20270;-75
2022/09/01 03:59:15;;;;;;;1.97;1.00;;;13.90;99.90;;;;;;4149458;28;20295;-75
2022/09/01 04:01:18;;;;;;;1.63;1.10;;;13.90;99.90;;;;;;4155101;28;20739;-75
2022/09/01 04:03:22;;;;;;;1.50;0.97;;;13.80;99.90;;;;;;4155306;28;20863;-75
2022/09/01 04:05:27;;;;;;;1.87;1.00;;;13.80;99.90;;;;;;4156439;28;20203;-75
2022/09/01 04:07:29;;;;;;;1.30;1.07;;;13.80;99.90;;;;;;4134399;28;20259;-75
2022/09/01 04:09:35;;;;;;;1.20;0.83;;;13.80;99.90;;;;;;4152802;28;20571;-75
2022/09/01 04:11:38;;;;;;;1.03;0.93;;;13.80;99.90;;;;;;4149716;28;20230;-75
2022/09/01 04:13:41;;;;;;;1.67;1.20;;;13.80;99.90;;;;;;4154546;28;20211;-75
2022/09/01 04:15:43;;;;;;;1.27;1.10;;;13.70;99.90;;;;;;4156172;28;20739;-75
2022/09/01 04:20:08;;;;;;;2.07;1.20;;;13.70;99.90;;;;;;4151090;28;20196;-75
2022/09/01 04:22:12;;;;;;;1.77;1.07;;;13.70;99.90;;;;;;4137719;28;20262;-75
2022/09/01 04:24:14;;;;;;;1.03;0.90;;;13.70;99.90;;;;;;4137214;28;20311;-75
2022/09/01 04:26:19;;;;;;;1.73;1.10;;;13.60;99.90;;;;;;4148001;28;20231;-75
2022/09/01 04:28:25;;;;;;;1.60;1.30;;;13.60;99.90;;;;;;4158281;28;20223;-75
2022/09/01 04:30:30;;;;;;;2.37;1.30;;;13.60;99.90;;;;;;4152521;28;20215;-75
2022/09/01 04:32:34;;;;;;;1.30;1.20;;;13.60;99.90;;;;;;4155098;28;20783;-75
2022/09/01 04:34:39;;;;;;;2.43;1.03;;;13.60;99.90;;;;;;4156083;28;20218;-75
2022/09/01 04:36:43;;;;;;;1.87;1.20;;;13.60;99.90;;;;;;4153312;28;20228;-75
2022/09/01 04:38:45;;;;;;;1.27;1.03;;;13.60;99.90;;;;;;4153909;28;20218;-75
2022/09/01 04:40:48;;;;;;;1.40;1.27;;;13.60;99.90;;;;;;4152921;28;20306;-75
2022/09/01 04:42:51;;;;;;;1.77;1.13;;;13.60;99.90;;;;;;4134267;28;20589;-75
2022/09/01 04:44:56;;;;;;;1.30;1.03;;;13.60;99.90;;;;;;4152450;28;20210;-75
2022/09/01 04:46:57;;;;;;;1.83;1.00;;;13.50;99.90;;;;;;4151958;28;20255;-75
2022/09/01 04:49:05;;;;;;;2.37;1.10;;;13.50;99.90;;;;;;4151927;28;20232;-75
2022/09/01 04:51:09;;;;;;;1.87;1.27;;;13.50;99.90;;;;;;4156072;28;20229;-76
2022/09/01 04:53:11;;;;;;;1.67;1.37;;;13.50;99.90;;;;;;4152952;28;20211;-76
2022/09/01 04:55:17;;;;;;;1.20;1.00;;;13.50;99.90;;;;;;4140744;28;20212;-75
2022/09/01 04:57:19;;;;;;;2.27;1.00;;;13.50;99.90;;;;;;4155838;28;20238;-76
2022/09/01 04:59:25;;;;;;;1.90;1.10;;;13.50;99.90;;;;;;4155775;28;20298;-76
2022/09/01 05:01:27;;;;;;;1.57;1.03;;;13.50;99.90;;;;;;4136784;28;20261;-75
2022/09/01 05:03:30;;;;;;;1.47;1.00;;;13.50;99.90;;;;;;4153474;28;20768;-76
2022/09/01 05:05:41;;;;;;;1.63;1.00;;;13.50;99.90;;;;;;4153547;28;20205;-76
2022/09/01 05:07:43;;;;;;;1.70;1.00;;;13.50;99.90;;;;;;4154726;28;20313;-76
2022/09/01 05:09:45;;;;;;;2.53;1.17;;;13.50;99.90;;;;;;4149599;28;20322;-76
2022/09/01 05:11:48;;;;;;;0.97;0.90;;;13.40;99.90;;;;;;4152916;28;20211;-76
2022/09/01 05:13:56;;;;;;;2.37;1.10;;;13.50;99.90;;;;;;4150153;28;20211;-76
2022/09/01 05:16:06;;;;;;;1.37;1.00;;;13.50;99.90;;;;;;4137981;28;20227;-76
2022/09/01 05:18:09;;;;;;;2.17;1.20;;;13.50;99.90;;;;;;4150308;28;20645;-76
2022/09/01 05:20:12;;;;;;;3.60;1.00;;;13.50;99.90;;;;;;4151926;28;20267;-76
2022/09/01 05:22:20;;;;;;;2.70;1.20;;;13.50;99.90;;;;;;4153089;28;20207;-76
2022/09/01 05:24:24;;;;;;;1.30;0.90;;;13.50;99.90;;;;;;4151797;28;20200;-76
2022/09/01 05:26:27;;;;;;;1.00;0.90;;;13.50;99.90;;;;;;4150007;28;20227;-76
2022/09/01 05:28:29;;;;;;;2.23;1.20;;;13.50;99.90;;;;;;4132165;28;20227;-75
2022/09/01 05:30:35;;;;;;;1.00;0.90;;;13.50;99.90;;;;;;4151243;28;20258;-76
2022/09/01 05:32:39;;;;;;;1.30;1.03;;;13.50;99.90;;;;;;4151412;28;20233;-76
2022/09/01 05:34:43;;;;;;;2.17;0.97;;;13.50;99.90;;;;;;4152472;28;20218;-76
2022/09/01 05:36:49;;;;;;;1.57;1.00;;;13.50;99.90;;;;;;4151716;28;20254;-75
2022/09/01 05:38:51;;;;;;;1.60;1.13;;;13.50;99.90;;;;;;4133426;28;20203;-75
2022/09/01 05:41:02;;;;;;;1.03;0.90;;;13.50;99.90;;;;;;4153192;28;20219;-75
2022/09/01 05:43:03;;;;;;;1.77;0.90;;;13.50;99.90;;;;;;4148035;28;20577;-76
2022/09/01 05:45:09;;;;;;;1.00;0.90;;;13.50;99.90;;;;;;4132969;28;20571;-76
2022/09/01 05:47:12;;;;;;;1.37;1.00;;;13.50;99.90;;;;;;4149031;28;20231;-76
2022/09/01 05:49:17;;;;;;;1.57;1.20;;;13.50;99.90;;;;;;4154857;28;20700;-75
2022/09/01 05:51:21;;;;;;;2.40;1.00;;;13.50;99.90;;;;;;4152944;28;20211;-74
2022/09/01 05:53:24;;;;;;;1.53;1.20;;;13.50;99.90;;;;;;4156020;28;20695;-77
2022/09/01 05:55:26;;;;;;;2.03;1.30;;;13.50;99.90;;;;;;4132334;28;20311;-76
2022/09/01 05:57:28;;;;;;;1.20;1.00;;;13.50;99.90;;;;;;4151860;28;20716;-77
2022/09/01 05:59:31;;;;;;;2.53;1.10;;;13.60;99.90;;;;;;4147046;28;20649;-76
2022/09/01 06:01:35;;;;;;;2.03;1.20;;;13.60;99.90;;;;;;4149381;28;20202;-77
2022/09/01 06:03:40;;;;;;;2.10;1.17;;;13.60;99.90;;;;;;4149676;28;20287;-77
2022/09/01 06:05:47;;;;;;;1.10;1.00;;;13.60;99.90;;;;;;4149550;28;20231;-76
2022/09/01 06:07:49;;;;;;;1.40;1.00;;;13.60;99.90;;;;;;4153517;28;20278;-76
2022/09/01 06:09:52;;;;;;;0.90;0.80;;;13.70;99.90;;;;;;4148692;28;20692;-76
2022/09/01 06:11:55;;;;;;;1.73;0.93;;;13.70;99.90;;;;;;4152917;28;20592;-76
2022/09/01 06:13:57;;;;;;;1.47;1.10;;;13.70;99.90;;;;;;4148650;28;21358;-76
2022/09/01 06:16:01;;;;;;;2.03;1.17;;;13.70;99.90;;;;;;4151653;28;20656;-76
2022/09/01 06:18:04;;;;;;;2.80;1.10;;;13.80;99.90;;;;;;4151077;28;20668;-76
2022/09/01 06:20:09;;;;;;;1.43;1.07;;;13.80;99.90;;;;;;4148089;28;21639;-76
2022/09/01 06:22:12;;;;;;;1.97;0.80;;;13.80;99.90;;;;;;4154104;28;20208;-76
2022/09/01 06:24:14;;;;;;;1.10;0.80;;;13.90;99.90;;;;;;4152115;28;20291;-76
2022/09/01 06:26:17;;;;;;;2.50;0.90;;;13.90;99.90;;;;;;4150638;28;20657;-77
2022/09/01 06:28:22;;;;;;;1.10;0.90;;;13.90;99.90;;;;;;4152571;28;20226;-77
2022/09/01 06:30:27;;;;;;;1.40;1.07;;;14.00;99.90;;;;;;4147260;28;20683;-77
2022/09/01 06:32:33;;;;;;;1.50;1.10;;;14.00;99.90;;;;;;4147408;28;20204;-77
2022/09/01 06:34:35;;;;;;;1.13;0.90;;;14.10;99.90;;;;;;4134576;28;20209;-77
2022/09/01 06:36:39;;;;;;;0.70;0.70;;;14.10;99.90;;;;;;4146500;28;20827;-77
2022/09/01 06:38:42;;;;;;;1.13;0.80;;;14.20;99.90;;;;;;4154182;28;20231;-77
2022/09/01 06:40:44;;;;;;;0.90;0.80;;;14.30;99.90;;;;;;4150588;28;20208;-77
2022/09/01 06:42:47;;;;;;;0.90;0.80;;;14.30;99.90;;;;;;4154700;28;20216;-77
2022/09/01 06:44:49;;;;;;;0.90;0.70;;;14.40;99.90;;;;;;4133401;28;20510;-75
2022/09/01 06:46:52;;;;;;;1.33;0.93;;;14.50;99.90;;;;;;4151871;28;20255;-75
2022/09/01 06:48:57;;;;;;;0.97;0.70;;;14.50;99.90;;;;;;4151790;28;20217;-77
2022/09/01 06:51:01;;;;;;;1.10;0.97;;;14.60;99.90;;;;;;4140836;28;20218;-76
2022/09/01 06:53:07;;;;;;;0.93;0.70;;;14.70;99.90;;;;;;4137969;28;20361;-75
2022/09/01 06:55:12;;;;;;;0.70;0.70;;;14.80;99.90;;;;;;4151401;28;20573;-76
2022/09/01 06:57:14;;;;;;;0.90;0.90;;;14.80;99.90;;;;;;4154885;28;20233;-76
2022/09/01 06:59:16;;;;;;;1.37;0.97;;;14.90;99.90;;;;;;4179612;23;20998;-80
2022/09/01 07:01:20;;;;;;;1.17;0.80;;;15.00;99.90;;;;;;4163621;28;20305;-80
2022/09/01 07:03:23;;;;;;;1.10;0.60;;;15.00;99.90;;;;;;4157855;28;20203;-81
2022/09/01 07:05:26;;;;;;;0.90;0.70;;;15.10;99.90;;;;;;4156448;28;20522;-79
2022/09/01 07:07:33;;;;;;;1.73;0.80;;;15.20;99.90;;;;;;4159168;28;20360;-79
2022/09/01 07:09:34;;;;;;;0.80;0.80;;;15.30;99.90;;;;;;4166349;28;20234;-79
2022/09/01 07:11:38;;;;;;;1.07;0.80;;;15.40;99.90;;;;;;4169517;28;20210;-80
2022/09/01 07:13:40;;;;;;;2.53;0.90;;;15.50;99.90;;;;;;4170344;28;20432;-79
2022/09/01 07:15:43;;;;;;;1.03;0.77;;;15.60;99.90;;;;;;4173048;28;20207;-80
2022/09/01 07:17:51;;;;;;;0.97;0.80;;;15.70;99.90;;;;;;4165579;28;20215;-80
2022/09/01 07:19:53;;;;;;;1.33;0.70;;;15.80;99.90;;;;;;4162920;28;20230;-80
2022/09/01 07:21:54;;;;;;;1.00;0.70;;;15.90;99.90;;;;;;4163339;28;20228;-80
2022/09/01 07:23:58;;;;;;;1.87;0.90;;;16.00;99.90;;;;;;4167189;28;20225;-80
2022/09/01 07:26:05;;;;;;;0.90;0.80;;;16.00;99.90;;;;;;4161669;28;20203;-80
2022/09/01 07:28:09;;;;;;;0.80;0.80;;;16.10;99.90;;;;;;4162614;28;20224;-80
2022/09/01 07:30:11;;;;;;;0.80;0.80;;;16.30;99.90;;;;;;4147584;28;20235;-78
2022/09/01 07:32:16;;;;;;;1.63;0.90;;;16.30;99.90;;;;;;4157873;28;20208;-79
2022/09/01 07:34:18;;;;;;;1.30;0.90;;;16.40;99.90;;;;;;4161026;28;20211;-79
2022/09/01 07:36:21;;;;;;;1.23;0.97;;;16.40;99.90;;;;;;4161828;28;20230;-79
2022/09/01 07:38:24;;;;;;;1.27;1.00;;;16.40;99.90;;;;;;4164187;28;20241;-79
2022/09/01 07:40:27;;;;;;;1.47;0.93;;;16.50;99.90;;;;;;4147830;28;20537;-79
2022/09/01 07:42:29;;;;;;;2.10;1.07;;;16.50;99.90;;;;;;4151997;28;20212;-79
2022/09/01 07:44:33;;;;;;;2.27;1.10;;;16.60;99.90;;;;;;4157360;28;20722;-79
2022/09/01 07:46:36;;;;;;;1.27;0.80;;;16.50;99.90;;;;;;4154128;28;20204;-79
2022/09/01 07:48:39;;;;;;;1.93;1.07;;;16.50;99.90;;;;;;4162654;28;20575;-79
2022/09/01 07:50:46;;;;;;;1.20;0.90;;;16.60;99.90;;;;;;4157563;28;20636;-79
2022/09/01 07:52:48;;;;;;;2.23;1.00;;;16.60;99.90;;;;;;4154896;28;20229;-79
2022/09/01 07:54:50;;;;;;;2.33;1.10;;;16.60;99.90;;;;;;4140286;28;20215;-79
2022/09/01 07:56:53;;;;;;;1.43;1.07;;;16.60;99.90;;;;;;4146157;28;20215;-79
2022/09/01 07:58:56;;;;;;;0.93;0.73;;;16.60;99.90;;;;;;4160365;28;20198;-79
2022/09/01 08:01:01;;;;;;;1.63;1.00;;;16.60;99.90;;;;;;4134521;28;20215;-79
2022/09/01 08:03:03;;;;;;;1.27;0.93;;;16.70;99.90;;;;;;4157081;28;20207;-79
2022/09/01 08:05:08;;;;;;;1.40;0.90;;;16.60;99.90;;;;;;4138398;28;20299;-79
2022/09/01 08:07:10;;;;;;;2.00;0.90;;;16.70;99.90;;;;;;4138524;28;20318;-79
2022/09/01 08:09:12;;;;;;;1.63;1.10;;;16.70;99.90;;;;;;4153526;28;20253;-79
2022/09/01 08:11:17;;;;;;;1.30;0.80;;;16.80;99.90;;;;;;4153169;28;20218;-79
2022/09/01 08:13:20;;;;;;;1.33;0.80;;;16.80;99.90;;;;;;4170958;28;20296;-79
2022/09/01 08:15:22;;;;;;;1.20;0.90;;;16.80;99.90;;;;;;4165737;28;20206;-79
2022/09/01 08:17:25;;;;;;;1.00;0.90;;;16.80;99.90;;;;;;4162289;28;20203;-79
2022/09/01 08:19:27;;;;;;;1.67;1.03;;;16.90;99.90;;;;;;4157760;28;20229;-79
2022/09/01 08:21:29;;;;;;;1.00;0.80;;;16.90;99.90;;;;;;4156712;28;20676;-79
2022/09/01 08:23:31;;;;;;;1.50;1.03;;;17.00;99.90;;;;;;4140793;28;20700;-79
2022/09/01 08:25:36;;;;;;;2.20;1.10;;;17.00;99.90;;;;;;4159161;28;20294;-79
2022/09/01 08:27:39;;;;;;;1.17;1.07;;;17.00;99.90;;;;;;4139915;28;20403;-79
2022/09/01 08:29:42;;;;;;;1.40;0.90;;;17.10;99.90;;;;;;4157784;28;20277;-79
2022/09/01 08:31:46;;;;;;;1.53;0.97;;;17.10;99.90;;;;;;4157394;28;20226;-79
2022/09/01 08:33:50;;;;;;;1.57;0.80;;;17.20;99.90;;;;;;4140706;28;20239;-79
2022/09/01 08:35:52;;;;;;;1.07;0.80;;;17.30;99.90;;;;;;4150173;28;20200;-79
2022/09/01 08:37:54;;;;;;;1.20;0.90;;;17.30;99.90;;;;;;4141022;28;20209;-79
2022/09/01 08:39:56;;;;;;;1.70;0.90;;;17.30;99.90;;;;;;4154599;28;20293;-79
2022/09/01 08:42:08;;;;;;;1.10;1.00;;;17.40;99.90;;;;;;4137149;28;20670;-79
2022/09/01 08:44:18;;;;;;;1.30;0.90;;;17.50;99.90;;;;;;4161236;28;20207;-80
2022/09/01 08:46:25;;;;;;;1.30;1.00;;;17.50;99.90;;;;;;4158875;28;20207;-79
2022/09/01 08:48:34;;;;;;;1.13;1.00;;;17.60;99.90;;;;;;4154111;28;20851;-79
2022/09/01 08:50:38;;;;;;;2.13;0.90;;;17.60;99.90;;;;;;4157005;28;20305;-79
2022/09/01 08:52:44;;;;;;;1.20;0.97;;;17.60;99.90;;;;;;4161679;28;20572;-79
2022/09/01 08:54:50;;;;;;;1.80;1.00;;;17.70;99.90;;;;;;4166238;28;20211;-79
2022/09/01 08:56:55;;;;;;;1.33;0.97;;;17.70;99.90;;;;;;4170739;28;20210;-79
2022/09/01 08:58:58;;;;;;;2.00;1.17;;;17.80;99.90;;;;;;4171452;28;20205;-79
2022/09/01 09:01:03;;;;;;;1.00;0.90;;;17.80;99.90;;;;;;4172548;28;20560;-79
2022/09/01 09:03:16;;;;;;;1.73;0.93;;;17.80;99.90;;;;;;4164131;28;20230;-79
2022/09/01 09:05:31;;;;;;;1.67;1.00;;;17.90;99.90;;;;;;4159884;28;20242;-79
2022/09/01 09:07:54;;;;;;;2.00;0.97;;;17.90;99.90;;;;;;4159360;28;20220;-78
2022/09/01 09:10:05;;;;;;;1.27;0.90;;;17.90;99.90;;;;;;4159069;28;20258;-78
2022/09/01 09:12:37;;;;;;;1.17;1.00;;;17.90;99.90;;;;;;4164215;28;20199;-79
2022/09/01 09:14:51;;;;;;;1.57;1.00;;;18.00;99.90;;;;;;4160302;28;20278;-79
2022/09/01 09:16:55;;;;;;;1.27;1.13;;;18.00;99.90;;;;;;4137801;28;20657;-79
2022/09/01 09:19:02;;;;;;;1.73;1.10;;;18.00;99.90;;;;;;4156767;28;20302;-79
2022/09/01 09:21:11;;;;;;;1.93;1.03;;;18.10;99.90;;;;;;4143521;28;20203;-79
2022/09/01 09:23:24;;;;;;;1.53;1.10;;;18.10;99.90;;;;;;4154764;28;20222;-79
2022/09/01 09:25:28;;;;;;;1.70;1.10;;;18.20;99.90;;;;;;4163841;28;20234;-79
2022/09/01 09:27:32;;;;;;;0.97;0.83;;;18.20;99.90;;;;;;4140193;28;20605;-80
2022/09/01 09:29:35;;;;;;;1.33;1.00;;;18.20;99.90;;;;;;4160163;28;20255;-80
2022/09/01 09:31:42;;;;;;;1.37;0.90;;;18.30;99.90;;;;;;4142568;28;20209;-80
2022/09/01 09:33:44;;;;;;;1.43;1.00;;;18.30;99.90;;;;;;4158695;28;20208;-78
2022/09/01 09:35:47;;;;;;;1.40;0.90;;;18.40;99.90;;;;;;4153282;28;20626;-78
2022/09/01 09:37:49;;;;;;;1.60;1.20;;;18.40;99.90;;;;;;4159597;28;20230;-78
2022/09/01 09:40:20;;;;;;;2.83;1.27;;;18.50;99.90;;;;;;4150042;28;20230;-78
2022/09/01 09:42:22;;;;;;;2.40;1.10;;;18.60;99.90;;;;;;4113895;28;20709;-78
2022/09/01 09:44:28;;;;;;;1.43;0.90;;;18.60;99.90;;;;;;4160538;28;20237;-78
2022/09/01 09:46:36;;;;;;;1.30;1.10;;;18.70;99.90;;;;;;4157983;28;20207;-78
2022/09/01 09:48:38;;;;;;;1.97;1.00;;;18.80;99.90;;;;;;4152063;28;20253;-78
2022/09/01 09:50:42;;;;;;;1.57;1.00;;;18.80;99.90;;;;;;4152586;28;20320;-77
2022/09/01 09:52:45;;;;;;;1.27;0.90;;;18.90;99.90;;;;;;4151559;28;20219;-77
2022/09/01 09:55:02;;;;;;;1.10;0.90;;;18.90;99.90;;;;;;4159149;28;20195;-80
2022/09/01 09:57:12;;;;;;;1.50;1.10;;;19.10;99.90;;;;;;4159781;28;20246;-81
2022/09/01 09:59:23;;;;;;;1.70;1.00;;;19.20;99.90;;;;;;4152196;28;20207;-79
2022/09/01 10:01:30;;;;;;;4.13;1.20;;;19.20;99.90;;;;;;4156551;28;20233;-79
2022/09/01 10:03:37;;;;;;;1.93;0.90;;;19.40;99.90;;;;;;4155659;28;20595;-80
2022/09/01 10:05:42;;;;;;;3.07;1.40;;;19.40;99.90;;;;;;4142583;28;20206;-79
2022/09/01 10:07:44;;;;;;;5.37;1.50;;;19.50;99.90;;;;;;4137671;28;20225;-81
2022/09/01 10:09:47;;;;;;;5.60;1.80;;;19.60;99.50;;;;;;4157093;28;20314;-79
2022/09/01 10:11:52;;;;;;;4.23;1.40;;;19.70;98.80;;;;;;4162413;28;20214;-80
2022/09/01 10:13:56;;;;;;;2.10;1.20;;;19.80;99.10;;;;;;4142306;28;20263;-80
2022/09/01 10:16:00;;;;;;;2.50;1.30;;;19.90;98.10;;;;;;4160295;28;20216;-80
2022/09/01 10:18:09;;;;;;;2.90;1.20;;;19.90;96.70;;;;;;4141280;28;20305;-80
2022/09/01 10:20:16;;;;;;;2.13;1.20;;;20.00;95.80;;;;;;4158584;28;20228;-80
2022/09/01 10:22:19;;;;;;;1.50;1.03;;;20.10;94.30;;;;;;4148536;28;20259;-80
2022/09/01 10:24:29;;;;;;;1.70;0.90;;;20.20;93.60;;;;;;4163622;28;20204;-81
2022/09/01 10:26:35;;;;;;;1.57;1.00;;;20.30;92.10;;;;;;4166260;28;20225;-80
2022/09/01 10:28:43;;;;;;;1.40;0.90;;;20.50;91.60;;;;;;4145090;28;20203;-79
2022/09/01 10:30:47;;;;;;;1.10;0.87;;;20.60;91.00;;;;;;4165323;28;20221;-80
2022/09/01 10:32:52;;;;;;;0.90;0.80;;;20.70;90.40;;;;;;4162707;28;20226;-80
2022/09/01 10:34:55;;;;;;;1.27;0.80;;;20.80;89.00;;;;;;4149360;28;20291;-80
2022/09/01 10:36:58;;;;;;;2.53;1.47;;;21.00;84.50;;;;;;4165987;28;20291;-80
2022/09/01 10:39:00;;;;;;;1.00;0.90;;;21.10;83.60;;;;;;4168715;28;20221;-80
2022/09/01 10:41:11;;;;;;;0.90;0.70;;;21.20;80.40;;;;;;4171779;28;20194;-81
2022/09/01 10:43:44;;;;;;;1.77;0.90;;;21.30;77.30;;;;;;4175089;28;20199;-80
2022/09/01 10:45:48;;;;;;;1.47;0.83;;;21.40;74.90;;;;;;4113298;29;20217;-80
2022/09/01 10:47:50;;;;;;;1.03;0.90;;;21.50;71.50;;;;;;4142361;28;20226;-80
2022/09/01 10:50:01;;;;;;;1.40;0.70;;;21.70;68.70;;;;;;4147685;28;20219;-80
2022/09/01 10:52:04;;;;;;;2.00;0.80;;;21.80;66.80;;;;;;4168940;28;20269;-80
2022/09/01 10:54:06;;;;;;;0.73;0.70;;;22.00;62.90;;;;;;4167167;28;20208;-80
2022/09/01 10:56:13;;;;;;;1.33;0.73;;;22.20;63.40;;;;;;4168216;28;20243;-80
2022/09/01 10:58:30;;;;;;;1.07;0.70;;;22.30;61.90;;;;;;4164084;28;20677;-80